Time;durP1;ratioP1;P1;durP2;ratioP2;P2;SDS_P1;SDS_P2;PMS_P1;PMS_P2;Temp;Humidity;BMP_temperature;BMP_pressure;BME280_temperature;BME280_humidity;BME280_pressure;Samples;Min_cycle;Max_cycle;Signal;HPM_P1;HPM_P2
2021/01/20 00:01:21;;;;;;;22.50;14.38;;;8.90;99.90;;;8.60;82.92;99891.97;4805599;29;20077;-71
2021/01/20 00:03:48;;;;;;;20.48;14.20;;;8.90;99.90;;;8.99;82.87;99967.03;4805590;29;20047;-70
2021/01/20 00:06:16;;;;;;;22.83;13.68;;;8.90;99.90;;;9.02;82.80;99977.53;4789456;29;20088;-71
2021/01/20 00:08:43;;;;;;;23.17;15.38;;;8.90;99.90;;;8.98;82.86;99960.91;4805762;29;20058;-70
2021/01/20 00:11:11;;;;;;;21.77;13.43;;;8.90;99.90;;;8.97;82.90;99960.91;4805339;29;20082;-70
2021/01/20 00:13:38;;;;;;;23.90;16.05;;;8.90;99.90;;;8.92;83.27;99939.88;4804461;29;20058;-70
2021/01/20 00:16:06;;;;;;;21.38;14.85;;;8.80;99.90;;;8.85;83.04;99945.25;4805420;29;20125;-70
2021/01/20 00:18:34;;;;;;;21.17;14.57;;;8.90;99.90;;;9.02;82.79;99957.31;4804253;29;20112;-71
2021/01/20 00:21:02;;;;;;;25.83;14.05;;;8.90;99.90;;;8.93;82.94;99948.66;4804046;29;20073;-71
2021/01/20 00:23:30;;;;;;;22.20;15.45;;;8.80;99.90;;;8.94;82.79;99947.78;4788991;29;20066;-71
2021/01/20 00:25:57;;;;;;;24.45;14.65;;;8.80;99.90;;;8.99;83.05;99961.78;4805819;29;20116;-71
2021/01/20 00:28:24;;;;;;;23.17;14.57;;;8.90;99.90;;;9.05;82.89;99925.66;4805032;29;20525;-70
2021/01/20 00:30:54;;;;;;;25.23;15.02;;;8.90;99.90;;;9.03;82.83;99952.94;4805375;29;20123;-71
2021/01/20 00:33:21;;;;;;;22.60;16.60;;;8.90;99.90;;;8.99;83.08;99927.50;4805352;29;20055;-71
2021/01/20 00:35:50;;;;;;;23.50;15.00;;;8.90;99.90;;;9.07;82.90;99949.38;4805198;29;20055;-70
2021/01/20 00:38:17;;;;;;;22.20;15.82;;;8.90;99.90;;;8.99;82.50;99943.31;4805110;29;20086;-71
2021/01/20 00:40:45;;;;;;;22.73;14.73;;;8.90;99.90;;;9.04;82.51;99942.34;4789090;29;20058;-70
2021/01/20 00:43:12;;;;;;;23.15;15.90;;;8.90;99.90;;;9.04;82.76;99947.63;4805212;29;20039;-71
2021/01/20 00:45:39;;;;;;;21.08;15.00;;;8.90;99.90;;;8.98;82.99;99917.84;4805156;29;20095;-71
2021/01/20 00:48:10;;;;;;;24.15;15.73;;;8.90;99.90;;;9.01;82.49;99939.78;4805013;29;20051;-71
2021/01/20 00:50:38;;;;;;;24.98;15.45;;;8.90;99.90;;;8.86;83.20;99887.25;4805004;29;20130;-70
2021/01/20 00:53:07;;;;;;;22.30;15.90;;;8.90;99.90;;;9.04;82.71;99928.28;4805177;29;20877;-70
2021/01/20 00:55:34;;;;;;;20.65;14.27;;;8.90;99.90;;;8.88;83.33;99945.22;4805018;29;20131;-71
2021/01/20 00:58:03;;;;;;;23.40;15.23;;;8.80;99.90;;;8.86;83.50;99883.72;4789026;29;20063;-70
2021/01/20 01:00:30;;;;;;;22.08;15.90;;;8.80;99.90;;;8.94;83.20;99924.91;4805066;29;20058;-71
2021/01/20 01:02:58;;;;;;;23.92;16.05;;;8.80;99.90;;;8.94;83.42;99893.25;4804990;29;20526;-71
2021/01/20 01:05:25;;;;;;;22.90;16.00;;;8.80;99.90;;;8.97;83.01;99916.97;4804884;29;20580;-71
2021/01/20 01:07:57;;;;;;;21.83;16.73;;;8.80;99.90;;;9.03;82.91;99918.66;4805131;29;20059;-71
2021/01/20 01:10:26;;;;;;;21.27;16.45;;;8.90;99.90;;;9.01;83.24;99929.22;4805033;29;20274;-70
2021/01/20 01:13:13;;;;;;;24.33;16.20;;;8.90;99.90;;;9.02;83.26;99922.16;4803802;29;20055;-70
2021/01/20 01:15:50;;;;;;;25.33;17.27;;;8.90;99.90;;;9.03;82.58;99916.91;4788423;29;20116;-70
2021/01/20 01:18:18;;;;;;;21.77;15.48;;;8.90;99.90;;;8.93;83.19;99895.94;4803667;29;20417;-70
2021/01/20 01:20:46;;;;;;;22.48;16.02;;;8.90;99.90;;;8.98;83.52;99920.50;4804845;29;20107;-70
2021/01/20 01:23:14;;;;;;;21.73;16.42;;;8.80;99.90;;;8.92;83.13;99934.59;4803550;29;20059;-70
2021/01/20 01:25:43;;;;;;;23.40;17.13;;;8.80;99.90;;;8.92;83.46;99902.94;4788430;29;20097;-70
2021/01/20 01:28:13;;;;;;;26.50;17.27;;;8.80;99.90;;;8.93;83.39;99904.72;4804906;29;20060;-70
2021/01/20 01:30:54;;;;;;;24.38;17.33;;;8.90;99.90;;;9.04;83.46;99891.38;4803503;29;20069;-70
2021/01/20 01:33:24;;;;;;;24.65;16.83;;;8.90;99.90;;;9.04;83.43;99894.00;4788421;29;20412;-71
2021/01/20 01:35:53;;;;;;;23.30;16.05;;;8.90;99.90;;;8.96;83.70;99888.84;4804649;29;20051;-70
2021/01/20 01:38:20;;;;;;;24.77;17.83;;;8.90;99.90;;;8.96;84.02;99909.09;4804584;29;20054;-70
2021/01/20 01:40:55;;;;;;;30.42;17.80;;;8.90;99.90;;;8.99;83.68;99898.47;4791791;29;20070;-70
2021/01/20 01:43:38;;;;;;;30.98;18.60;;;8.90;99.90;;;9.02;83.79;99888.75;4791962;29;20058;-70
2021/01/20 01:46:35;;;;;;;32.47;18.42;;;8.90;99.90;;;8.99;84.14;99893.22;4791918;29;20069;-70
2021/01/20 01:49:14;;;;;;;24.52;17.52;;;8.90;99.90;;;9.14;84.31;99878.94;4806602;29;20142;-71
2021/01/20 01:51:42;;;;;;;24.95;18.67;;;8.90;99.90;;;8.99;83.83;99861.56;4808121;29;20144;-70
2021/01/20 01:54:29;;;;;;;25.30;18.10;;;8.90;99.90;;;9.02;84.48;99877.31;4807959;29;20054;-71
2021/01/20 01:57:01;;;;;;;25.38;18.35;;;8.90;99.90;;;9.04;84.42;99865.00;4806626;29;20518;-70
2021/01/20 01:59:32;;;;;;;31.95;20.05;;;9.00;99.90;;;8.95;84.68;99841.41;4806464;29;20063;-70
2021/01/20 02:02:00;;;;;;;30.15;19.90;;;8.90;99.90;;;9.01;85.03;99854.50;4806959;29;20409;-70
2021/01/20 02:04:35;;;;;;;25.98;20.25;;;8.90;99.90;;;9.06;85.10;99855.28;4791824;29;20076;-71
2021/01/20 02:07:12;;;;;;;26.30;18.60;;;8.90;99.90;;;9.11;84.85;99858.75;4791518;29;20119;-71
2021/01/20 02:09:40;;;;;;;28.60;19.38;;;9.00;99.90;;;9.07;84.36;99831.56;4806330;29;20462;-70
2021/01/20 02:12:44;;;;;;;30.63;18.33;;;9.00;99.90;;;9.02;85.04;99833.38;4806201;29;20140;-70
2021/01/20 02:15:24;;;;;;;26.20;18.55;;;8.90;99.90;;;9.10;84.82;99883.38;4806275;29;20136;-70
2021/01/20 02:17:58;;;;;;;24.45;18.35;;;9.00;99.90;;;9.13;84.92;99853.44;4791096;29;20059;-72
2021/01/20 02:21:49;;;;;;;26.95;18.92;;;9.00;99.90;;;9.03;84.80;99850.97;4797360;29;20134;-73
2021/01/20 02:24:47;;;;;;;29.10;18.75;;;9.00;99.90;;;8.99;85.27;99833.44;4807617;29;20062;-73
2021/01/20 02:27:50;;;;;;;29.15;19.00;;;9.00;99.90;;;9.14;84.69;99842.88;4807152;29;20435;-73
2021/01/20 02:30:22;;;;;;;27.05;19.15;;;9.00;99.90;;;9.12;85.20;99801.59;4791145;29;20087;-73
2021/01/20 02:33:02;;;;;;;24.50;19.15;;;9.00;99.90;;;9.14;85.39;99826.19;4790828;29;20406;-72
2021/01/20 02:35:43;;;;;;;28.88;18.65;;;9.00;99.90;;;9.10;85.13;99830.63;4806085;29;20062;-73
2021/01/20 02:38:12;;;;;;;27.10;19.15;;;9.00;99.90;;;9.16;85.00;99812.06;4806085;29;20066;-73
2021/01/20 02:41:12;;;;;;;;;;;9.00;99.90;;;9.05;85.34;99799.06;4801340;29;20569;-73
2021/01/20 02:44:01;;;;;;;28.80;19.20;;;9.00;99.90;;;9.04;86.07;99784.13;4805972;29;19948;-73
2021/01/20 02:46:33;;;;;;;27.00;20.23;;;9.00;99.90;;;9.19;85.80;99811.16;4807200;29;20059;-72
2021/01/20 02:49:09;;;;;;;27.75;19.30;;;9.00;99.90;;;9.20;86.37;99803.22;4790735;29;20068;-73
2021/01/20 02:51:46;;;;;;;28.83;20.05;;;9.10;99.90;;;9.14;86.00;99790.13;4805442;29;20082;-73
2021/01/20 02:54:34;;;;;;;29.67;20.95;;;9.10;99.90;;;9.19;85.98;99795.31;4807180;29;20066;-73
2021/01/20 02:57:42;;;;;;;27.05;20.05;;;9.10;99.90;;;9.23;85.93;99810.22;4733395;30;20060;-73
2021/01/20 03:00:17;;;;;;;26.10;19.52;;;9.10;99.90;;;9.15;85.61;99814.72;4733401;30;20061;-73
2021/01/20 03:02:53;;;;;;;29.48;19.45;;;9.10;99.90;;;9.19;85.86;99793.56;4759975;29;20059;-73
2021/01/20 03:05:22;;;;;;;28.48;20.45;;;9.10;99.90;;;9.25;85.78;99795.22;4807278;29;20113;-73
2021/01/20 03:07:50;;;;;;;28.38;19.55;;;9.10;99.90;;;9.20;85.16;99765.41;4806446;29;20059;-73
2021/01/20 03:10:19;;;;;;;27.05;19.27;;;9.10;99.90;;;9.24;85.39;99789.06;4806235;29;20058;-73
2021/01/20 03:12:46;;;;;;;26.83;18.98;;;9.10;99.90;;;9.16;85.41;99779.53;4807300;29;20490;-73
2021/01/20 03:15:22;;;;;;;23.65;17.80;;;9.10;99.90;;;9.18;85.61;99801.47;4806960;29;20054;-73
2021/01/20 03:17:50;;;;;;;24.23;18.60;;;9.10;99.90;;;9.27;85.25;99789.00;4806942;29;20589;-73
2021/01/20 03:20:17;;;;;;;26.83;18.73;;;9.10;99.90;;;9.32;85.49;99787.19;4806635;29;20058;-73
2021/01/20 03:22:45;;;;;;;27.52;18.38;;;9.20;99.90;;;9.32;85.71;99794.22;4806748;29;20066;-72
2021/01/20 03:25:12;;;;;;;24.55;18.23;;;9.20;99.90;;;9.18;85.91;99799.72;4806727;29;20051;-72
2021/01/20 03:27:40;;;;;;;24.10;17.48;;;9.10;99.90;;;9.18;86.67;99777.72;4806816;29;20145;-73
2021/01/20 03:30:10;;;;;;;27.63;18.42;;;9.10;99.90;;;9.17;86.89;99790.06;4806330;29;20055;-73
2021/01/20 03:32:37;;;;;;;28.35;18.02;;;9.10;99.90;;;9.16;87.59;99769.84;4806325;29;20050;-73
2021/01/20 03:35:07;;;;;;;24.00;18.23;;;9.10;99.90;;;9.09;87.57;99740.09;4806459;29;20405;-73
2021/01/20 03:37:35;;;;;;;24.65;18.65;;;9.00;99.90;;;9.13;87.30;99791.03;4806114;29;20118;-73
2021/01/20 03:40:03;;;;;;;23.42;18.75;;;9.00;99.90;;;9.20;87.42;99775.94;4806217;29;20054;-73
2021/01/20 03:42:30;;;;;;;26.85;18.55;;;9.10;99.90;;;9.17;86.83;99747.00;4806231;29;20145;-73
2021/01/20 03:44:58;;;;;;;25.42;17.63;;;9.10;99.90;;;9.15;86.88;99793.63;4806092;29;20150;-73
2021/01/20 03:47:25;;;;;;;23.58;17.67;;;9.10;99.90;;;9.17;86.71;99761.06;4806078;29;20051;-73
2021/01/20 03:49:53;;;;;;;24.85;17.70;;;9.10;99.90;;;9.22;86.35;99759.22;4805986;29;20143;-73
2021/01/20 03:52:21;;;;;;;21.55;16.90;;;9.10;99.90;;;9.15;86.16;99747.03;4806077;29;20047;-73
2021/01/20 03:54:48;;;;;;;22.83;16.63;;;9.10;99.90;;;9.15;85.67;99738.22;4806050;29;20069;-72
2021/01/20 03:57:16;;;;;;;26.48;17.13;;;9.10;99.90;;;9.17;84.92;99729.41;4806151;29;20414;-72
2021/01/20 03:59:43;;;;;;;22.45;16.52;;;9.10;99.90;;;9.20;84.87;99745.16;4805817;29;20086;-73
2021/01/20 04:02:10;;;;;;;21.58;16.38;;;9.00;99.90;;;9.23;84.81;99762.72;4805402;29;20115;-73
2021/01/20 04:04:38;;;;;;;22.00;16.13;;;9.10;99.90;;;9.17;84.12;99750.50;4805576;29;20085;-73
2021/01/20 04:07:06;;;;;;;25.02;16.55;;;9.10;99.90;;;9.13;84.01;99726.84;4805850;29;20145;-73
2021/01/20 04:09:34;;;;;;;24.42;16.73;;;9.10;99.90;;;9.17;84.33;99776.00;4805398;29;20138;-73
2021/01/20 04:12:02;;;;;;;20.55;15.90;;;9.10;99.90;;;9.15;83.67;99688.13;4789366;29;20058;-73
2021/01/20 04:14:29;;;;;;;21.45;15.93;;;9.10;99.90;;;9.19;83.81;99713.53;4805439;29;20094;-73
2021/01/20 04:16:57;;;;;;;23.27;16.98;;;9.10;99.90;;;9.21;83.29;99741.66;4805484;29;20073;-73
2021/01/20 04:19:24;;;;;;;26.42;16.90;;;9.10;99.90;;;9.14;83.62;99726.81;4805321;29;20138;-74
2021/01/20 04:21:52;;;;;;;24.45;16.90;;;9.10;99.90;;;9.27;83.77;99723.03;4805472;29;20057;-73
2021/01/20 04:24:19;;;;;;;21.13;16.52;;;9.10;99.90;;;9.18;83.46;99712.66;4805424;29;20062;-73
2021/01/20 04:26:48;;;;;;;20.58;15.77;;;9.10;99.90;;;9.15;83.30;99712.72;4805346;29;20395;-73
2021/01/20 04:29:16;;;;;;;21.50;16.15;;;9.10;99.90;;;9.17;83.51;99710.94;4805325;29;20053;-72
2021/01/20 04:31:44;;;;;;;20.85;15.35;;;9.10;99.90;;;8.58;83.11;99593.31;4805196;29;20513;-72
2021/01/20 04:34:12;;;;;;;20.77;15.52;;;9.10;99.90;;;9.17;83.24;99703.03;4805459;29;20054;-72
2021/01/20 04:36:39;;;;;;;22.77;16.17;;;9.10;99.90;;;9.19;83.25;99690.69;4805226;29;20498;-73
2021/01/20 04:39:06;;;;;;;23.30;16.35;;;9.10;99.90;;;9.20;83.06;99700.31;4805162;29;20596;-70
2021/01/20 04:41:34;;;;;;;20.38;16.13;;;9.10;99.90;;;9.15;83.25;99715.38;4805173;29;20135;-70
2021/01/20 04:44:03;;;;;;;22.77;15.27;;;9.10;99.90;;;9.14;83.06;99687.25;4788733;29;20071;-70
2021/01/20 04:46:30;;;;;;;23.13;15.13;;;9.10;99.90;;;9.21;83.29;99674.81;4805015;29;20111;-70
2021/01/20 04:49:00;;;;;;;22.35;15.70;;;9.10;99.90;;;9.14;82.90;99654.75;4805305;29;20047;-70
2021/01/20 04:51:30;;;;;;;21.55;15.75;;;9.10;99.90;;;9.26;83.00;99692.31;4805125;29;20061;-70
2021/01/20 04:53:58;;;;;;;19.98;14.93;;;9.10;99.90;;;9.27;83.08;99686.13;4805120;29;20130;-70
2021/01/20 04:56:26;;;;;;;18.23;14.77;;;9.10;99.90;;;9.24;83.15;99680.91;4803745;29;20421;-70
2021/01/20 04:58:55;;;;;;;19.30;14.70;;;9.10;99.90;;;9.22;82.90;99689.75;4804828;29;20059;-70
2021/01/20 05:01:24;;;;;;;21.85;15.35;;;9.10;99.90;;;9.26;82.76;99687.03;4805077;29;20055;-70
2021/01/20 05:03:53;;;;;;;21.83;14.02;;;9.10;99.90;;;9.27;82.72;99680.00;4804957;29;20073;-69
2021/01/20 05:06:21;;;;;;;23.67;15.27;;;9.20;99.90;;;9.10;83.26;99636.31;4805024;29;20089;-71
2021/01/20 05:08:48;;;;;;;22.27;15.13;;;9.10;99.90;;;9.22;82.78;99664.22;4804793;29;20116;-73
2021/01/20 05:11:17;;;;;;;21.42;15.63;;;9.10;99.90;;;9.29;82.88;99686.13;4804797;29;20129;-70
2021/01/20 05:13:45;;;;;;;21.38;14.98;;;9.10;99.90;;;9.24;82.85;99656.28;4804927;29;20113;-71
2021/01/20 05:16:26;;;;;;;20.10;14.48;;;9.10;99.90;;;9.20;82.89;99646.69;4808567;29;20104;-71
2021/01/20 05:18:53;;;;;;;21.23;15.65;;;9.10;99.90;;;9.31;82.91;99650.84;4808518;29;20063;-72
2021/01/20 05:21:21;;;;;;;19.63;14.93;;;9.20;99.90;;;9.27;82.71;99635.97;4808437;29;20088;-71
2021/01/20 05:23:48;;;;;;;20.52;14.98;;;9.20;99.90;;;9.37;82.86;99653.38;4808380;29;20077;-71
2021/01/20 05:26:16;;;;;;;19.17;14.38;;;9.30;99.90;;;8.76;82.60;99552.59;4792252;29;20091;-69
2021/01/20 05:28:43;;;;;;;21.95;15.05;;;9.30;99.90;;;9.36;82.93;99651.66;4792126;29;20138;-69
2021/01/20 05:31:26;;;;;;;20.23;14.38;;;9.30;99.90;;;9.40;82.82;99639.28;4808257;29;20055;-69
2021/01/20 05:33:54;;;;;;;25.10;15.25;;;9.30;99.90;;;9.42;82.47;99646.28;4808295;29;20135;-69
2021/01/20 05:36:21;;;;;;;18.88;14.55;;;9.30;99.90;;;9.00;82.56;99567.97;4808137;29;20129;-69
2021/01/20 05:38:51;;;;;;;18.45;14.20;;;9.30;99.90;;;9.41;82.79;99626.03;4808312;29;20101;-69
2021/01/20 05:41:21;;;;;;;17.00;13.25;;;9.30;99.90;;;9.18;82.48;99596.59;4808206;29;20059;-69
2021/01/20 05:43:50;;;;;;;20.13;13.25;;;9.30;99.90;;;8.96;82.74;99558.38;4808075;29;20066;-69
2021/01/20 05:46:33;;;;;;;18.08;13.35;;;9.30;99.90;;;9.35;83.06;99634.06;4808068;29;20491;-69
2021/01/20 05:49:01;;;;;;;23.23;14.38;;;9.30;99.90;;;9.37;82.84;99619.09;4807930;29;20051;-69
2021/01/20 05:51:39;;;;;;;18.33;13.68;;;9.20;99.90;;;9.42;83.26;99632.19;4808000;29;20421;-69
2021/01/20 05:54:08;;;;;;;17.33;12.55;;;9.30;99.90;;;9.38;83.22;99622.59;4808133;29;20059;-69
2021/01/20 05:56:38;;;;;;;20.92;15.00;;;9.30;99.90;;;9.46;82.99;99636.53;4807994;29;20133;-69
2021/01/20 05:59:09;;;;;;;19.95;13.38;;;9.30;99.90;;;9.42;82.94;99635.72;4807850;29;20051;-69
2021/01/20 06:01:38;;;;;;;16.20;12.43;;;9.30;99.90;;;9.39;82.52;99617.28;4807706;29;20070;-69
2021/01/20 06:04:07;;;;;;;16.92;13.02;;;9.30;99.90;;;9.42;83.08;99650.66;4807710;29;20057;-69
2021/01/20 06:06:35;;;;;;;17.05;12.73;;;9.30;99.90;;;9.52;82.47;99645.19;4807687;29;20051;-69
2021/01/20 06:09:03;;;;;;;17.23;12.70;;;9.30;99.90;;;9.51;82.70;99640.81;4805941;29;20502;-68
2021/01/20 06:11:30;;;;;;;17.27;12.60;;;9.40;99.90;;;9.46;82.99;99647.94;4806476;29;20058;-68
2021/01/20 06:14:02;;;;;;;16.88;11.82;;;9.30;99.90;;;9.46;82.73;99625.97;4806429;29;20055;-69
2021/01/20 06:16:30;;;;;;;16.50;12.68;;;9.40;99.90;;;9.48;83.13;99662.00;4806673;29;20061;-69
2021/01/20 06:19:07;;;;;;;17.90;13.13;;;9.40;99.90;;;9.50;83.19;99617.09;4806390;29;20051;-68
2021/01/20 06:21:36;;;;;;;17.75;12.38;;;9.40;99.90;;;9.49;82.77;99633.81;4806390;29;20054;-69
2021/01/20 06:24:13;;;;;;;17.45;12.82;;;9.40;99.90;;;9.54;82.87;99640.72;4790049;29;20510;-68
2021/01/20 06:26:48;;;;;;;18.60;13.57;;;9.40;99.90;;;9.51;83.03;99638.16;4805881;29;20082;-68
2021/01/20 06:29:23;;;;;;;20.50;13.15;;;9.40;99.90;;;9.55;83.13;99616.09;4805062;29;20494;-68
2021/01/20 06:31:53;;;;;;;16.02;12.30;;;9.40;99.90;;;9.50;83.08;99601.25;4806287;29;20528;-69
2021/01/20 06:34:21;;;;;;;16.75;12.32;;;9.40;99.90;;;9.49;83.48;99633.81;4806184;29;20051;-69
2021/01/20 06:36:49;;;;;;;16.73;13.18;;;9.40;99.90;;;9.42;83.45;99614.59;4806100;29;20054;-69
2021/01/20 06:39:33;;;;;;;14.77;11.90;;;9.40;99.90;;;9.50;83.74;99623.25;4806254;29;20043;-69
2021/01/20 06:42:03;;;;;;;13.63;11.55;;;9.40;99.90;;;9.48;84.01;99622.41;4806296;29;20058;-68
2021/01/20 06:44:30;;;;;;;16.77;12.15;;;9.40;99.90;;;9.51;83.73;99614.41;4806058;29;20135;-68
2021/01/20 06:47:04;;;;;;;16.30;11.88;;;9.30;99.90;;;9.53;84.25;99609.09;4804782;29;20059;-68
2021/01/20 06:49:34;;;;;;;15.90;11.73;;;9.40;99.90;;;9.49;84.20;99618.84;4805820;29;20051;-68
2021/01/20 06:52:11;;;;;;;17.67;11.48;;;9.40;99.90;;;9.54;84.20;99592.38;4806172;29;20047;-69
2021/01/20 06:54:41;;;;;;;13.43;11.60;;;9.40;99.90;;;9.51;84.51;99605.63;4806072;29;20062;-69
2021/01/20 06:57:33;;;;;;;17.20;12.52;;;9.40;99.90;;;9.47;84.57;99607.44;4805982;29;20051;-68
2021/01/20 07:00:21;;;;;;;16.38;11.93;;;9.40;99.90;;;9.52;84.36;99587.13;4805720;29;20050;-69
2021/01/20 07:03:01;;;;;;;16.75;11.88;;;9.40;99.90;;;9.54;85.16;99592.38;4804743;29;20051;-69
2021/01/20 07:05:40;;;;;;;18.55;11.30;;;9.40;99.90;;;9.49;84.86;99584.53;4789606;29;20166;-69
2021/01/20 07:08:09;;;;;;;16.92;11.98;;;9.40;99.90;;;9.55;84.96;99604.66;4805762;29;20065;-69
2021/01/20 07:11:08;;;;;;;16.20;12.70;;;9.40;99.90;;;9.53;85.50;99599.41;5130454;27;20471;-69
2021/01/20 07:13:42;;;;;;;14.68;11.55;;;9.40;99.90;;;9.54;85.27;99579.19;5109988;28;20097;-69
2021/01/20 07:16:13;;;;;;;18.35;12.52;;;9.40;99.90;;;9.55;85.39;99573.84;5091685;28;20120;-69
2021/01/20 07:18:43;;;;;;;14.40;11.65;;;9.40;99.90;;;9.10;85.04;99495.66;5109674;28;20043;-69
2021/01/20 07:21:11;;;;;;;14.13;11.07;;;9.40;99.90;;;9.53;85.55;99573.03;5109793;28;20044;-70
2021/01/20 07:23:40;;;;;;;18.42;12.25;;;9.40;99.90;;;9.58;85.32;99599.34;5109728;28;20055;-69
2021/01/20 07:26:09;;;;;;;14.50;11.23;;;9.40;99.90;;;9.31;85.21;99550.59;5091456;28;20048;-69
2021/01/20 07:28:38;;;;;;;14.52;10.85;;;9.40;99.90;;;9.51;85.35;99590.66;5109492;28;20063;-69
2021/01/20 07:31:10;;;;;;;16.27;12.00;;;9.40;99.90;;;9.46;85.50;99579.34;5109268;28;20050;-69
2021/01/20 07:33:39;;;;;;;14.98;11.52;;;9.30;99.90;;;9.50;85.55;99593.34;5109508;28;20113;-68
2021/01/20 07:36:14;;;;;;;15.75;11.48;;;9.40;99.90;;;9.44;85.65;99570.59;5109441;28;20051;-69
2021/01/20 07:38:41;;;;;;;17.63;11.88;;;9.40;99.90;;;9.56;85.95;99603.78;5109753;28;20447;-69
2021/01/20 07:41:25;;;;;;;15.32;11.38;;;9.40;99.90;;;9.44;85.66;99567.94;5109159;28;20059;-68
2021/01/20 07:44:05;;;;;;;14.57;10.93;;;9.40;99.90;;;9.52;85.59;99597.69;5109281;28;20396;-69
2021/01/20 07:46:33;;;;;;;15.70;10.88;;;9.40;99.90;;;9.61;85.21;99583.41;5109492;28;20039;-69
2021/01/20 07:49:11;;;;;;;13.45;10.68;;;9.40;99.90;;;9.06;85.37;99496.63;5109097;28;20040;-69
2021/01/20 07:51:39;;;;;;;15.18;10.75;;;9.50;99.90;;;9.58;84.98;99594.91;5109442;28;20071;-69
2021/01/20 07:54:07;;;;;;;10.70;9.57;;;9.50;99.90;;;9.59;85.17;99606.31;5108964;28;20032;-69
2021/01/20 07:56:36;;;;;;;15.82;10.25;;;9.50;99.90;;;9.67;84.91;99612.31;5109291;28;20061;-69
2021/01/20 07:59:18;;;;;;;13.38;10.48;;;9.50;99.90;;;9.69;84.41;99598.19;5108995;28;20135;-69
2021/01/20 08:01:46;;;;;;;11.95;9.55;;;9.60;99.90;;;9.69;84.30;99571.81;5109038;28;20059;-69
2021/01/20 08:04:22;;;;;;;13.43;9.60;;;9.60;99.90;;;9.66;84.33;99584.16;5108909;28;20040;-69
2021/01/20 08:06:50;;;;;;;12.57;9.85;;;9.50;99.90;;;9.69;83.56;99592.03;5109184;28;20121;-69
2021/01/20 08:09:18;;;;;;;10.85;9.65;;;9.50;99.90;;;9.67;83.38;99578.00;5108566;28;20048;-69
2021/01/20 08:11:47;;;;;;;14.82;10.25;;;9.50;99.90;;;9.69;83.23;99579.72;5108842;28;20055;-69
2021/01/20 08:14:15;;;;;;;9.93;8.73;;;9.60;99.90;;;9.69;83.44;99581.47;5108788;28;20077;-69
2021/01/20 08:16:43;;;;;;;13.68;9.20;;;9.60;99.90;;;9.64;83.26;99605.31;5108758;28;20040;-69
2021/01/20 08:19:19;;;;;;;11.20;8.18;;;9.50;99.90;;;9.60;83.27;99574.63;5108461;28;20131;-69
2021/01/20 08:21:47;;;;;;;11.50;8.50;;;9.60;99.90;;;9.79;83.03;99604.16;5099228;28;20059;-69
2021/01/20 08:24:21;;;;;;;10.90;7.93;;;9.60;99.90;;;9.71;82.62;99601.69;5095110;28;20113;-69
2021/01/20 08:26:57;;;;;;;11.73;8.57;;;9.60;99.90;;;9.77;82.65;99591.00;5095121;28;20052;-69
2021/01/20 08:29:26;;;;;;;9.88;8.15;;;9.70;99.90;;;9.65;82.48;99564.84;5094768;28;20436;-68
2021/01/20 08:32:08;;;;;;;9.38;8.38;;;9.60;99.90;;;9.69;82.24;99574.44;5094844;28;20105;-69
2021/01/20 08:34:38;;;;;;;15.00;8.88;;;9.60;99.90;;;9.72;82.17;99587.56;5076926;28;20044;-69
2021/01/20 08:37:09;;;;;;;12.50;8.98;;;9.60;99.90;;;9.73;81.67;99573.47;5095149;28;20358;-69
2021/01/20 08:39:39;;;;;;;12.63;8.68;;;9.60;99.90;;;9.74;81.65;99592.81;5095189;28;20040;-70
2021/01/20 08:42:22;;;;;;;9.90;7.43;;;9.60;99.90;;;9.71;80.86;99585.84;5094635;28;20115;-69
2021/01/20 08:45:15;;;;;;;10.95;8.93;;;9.60;99.90;;;9.70;80.93;99583.22;5094696;28;20043;-72
2021/01/20 08:47:51;;;;;;;54.00;29.30;;;9.60;99.90;;;9.76;80.49;99583.06;5090545;28;20044;-68
2021/01/20 08:50:32;;;;;;;107.50;51.40;;;9.70;99.90;;;9.75;80.48;99566.38;5074420;28;20044;-68
2021/01/20 08:53:01;;;;;;;12.45;8.80;;;9.60;99.90;;;9.87;80.77;99575.81;5074280;28;20053;-68
2021/01/20 08:55:31;;;;;;;13.23;9.63;;;9.70;99.90;;;9.15;80.37;99472.72;5074520;28;20052;-69
2021/01/20 08:58:34;;;;;;;9.80;8.60;;;9.70;99.90;;;9.78;80.39;99579.50;5074213;28;20048;-69
2021/01/20 09:01:06;;;;;;;11.10;7.10;;;9.70;99.90;;;9.97;80.42;99595.81;5074510;28;20044;-69
2021/01/20 09:03:35;;;;;;;;;;;9.80;99.90;;;9.79;80.46;99575.94;5074540;28;20049;-69
2021/01/20 09:06:05;;;;;;;10.18;7.40;;;9.80;99.90;;;9.87;80.35;99587.22;5056036;28;19920;-69
2021/01/20 09:08:37;;;;;;;9.52;7.05;;;9.80;99.90;;;9.82;80.50;99562.69;5073831;28;20044;-71
2021/01/20 09:11:05;;;;;;;12.50;7.55;;;9.80;99.90;;;9.87;80.35;99573.16;5055475;28;20056;-70
2021/01/20 09:13:34;;;;;;;8.80;7.25;;;9.80;99.90;;;9.85;80.38;99561.78;5073726;28;20044;-69
2021/01/20 09:16:02;;;;;;;8.52;7.55;;;9.70;99.90;;;9.75;80.22;99570.78;5055851;28;20069;-70
2021/01/20 09:18:30;;;;;;;8.95;7.13;;;9.70;99.90;;;9.87;80.20;99574.00;5073827;28;20041;-70
2021/01/20 09:20:57;;;;;;;10.80;8.18;;;9.80;99.90;;;9.84;80.04;99587.31;5073546;28;20468;-69
2021/01/20 09:23:25;;;;;;;10.52;7.15;;;9.70;99.90;;;9.82;80.24;99573.25;5073505;28;20383;-69
2021/01/20 09:25:53;;;;;;;10.02;7.18;;;9.80;99.90;;;9.98;80.25;99558.81;5055393;28;20044;-69
2021/01/20 09:28:21;;;;;;;10.38;7.60;;;9.80;99.90;;;9.96;79.83;99565.03;5073391;28;20040;-69
2021/01/20 09:30:50;;;;;;;8.65;7.15;;;9.80;99.90;;;9.96;79.54;99560.63;5073311;28;20052;-69
2021/01/20 09:33:18;;;;;;;8.98;6.93;;;9.80;99.90;;;9.91;79.46;99566.91;5072400;28;20115;-70
2021/01/20 09:35:46;;;;;;;8.90;7.38;;;9.80;99.90;;;9.91;78.81;99566.91;5073335;28;20070;-69
2021/01/20 09:38:16;;;;;;;8.23;7.00;;;9.80;99.90;;;9.89;78.87;99569.56;5073223;28;20046;-69
2021/01/20 09:40:43;;;;;;;8.93;6.97;;;9.80;99.90;;;9.82;78.34;99535.41;5073388;28;20063;-69
2021/01/20 09:43:11;;;;;;;8.98;7.07;;;9.80;99.90;;;9.87;78.45;99576.66;5073154;28;20897;-70
2021/01/20 09:45:38;;;;;;;10.02;6.85;;;9.80;99.90;;;9.87;77.77;99559.97;5073251;28;20053;-70
2021/01/20 09:48:07;;;;;;;11.43;7.10;;;9.80;99.90;;;9.91;77.38;99580.97;5073004;28;20044;-70
2021/01/20 09:50:35;;;;;;;10.88;7.93;;;9.80;99.90;;;9.81;76.96;99545.09;5092635;28;20047;-70
2021/01/20 09:53:03;;;;;;;30.15;26.98;;;9.80;99.90;;;9.95;76.81;99561.50;5093141;28;20048;-68
2021/01/20 09:55:31;;;;;;;16.50;11.63;;;9.80;99.90;;;9.97;76.53;99557.06;5075181;28;20055;-70
2021/01/20 09:58:02;;;;;;;9.50;7.82;;;9.80;99.90;;;9.95;75.85;99561.50;5093336;28;20111;-70
2021/01/20 10:00:34;;;;;;;9.57;7.30;;;9.90;99.90;;;10.00;76.09;99567.56;5074870;28;20121;-70
2021/01/20 10:03:06;;;;;;;7.85;6.53;;;9.90;99.90;;;10.07;75.80;99555.06;5093093;28;20036;-73
2021/01/20 10:05:35;;;;;;;8.80;6.95;;;9.90;99.90;;;9.99;75.51;99567.59;5074798;28;20082;-62
2021/01/20 10:08:03;;;;;;;9.25;6.35;;;9.90;99.90;;;10.08;75.84;99548.03;5092875;28;20043;-69
2021/01/20 10:10:31;;;;;;;10.73;6.70;;;9.90;99.90;;;10.10;75.31;99557.69;5092865;28;20056;-63
2021/01/20 10:12:58;;;;;;;7.22;5.82;;;10.00;99.90;;;10.19;75.13;99546.91;5092883;28;20079;-67
2021/01/20 10:15:26;;;;;;;8.73;6.45;;;10.00;99.90;;;10.12;74.94;99532.09;5092857;28;20067;-62
2021/01/20 10:17:54;;;;;;;7.50;6.50;;;10.00;99.90;;;10.20;74.65;99539.84;5092666;28;20066;-65
2021/01/20 10:20:23;;;;;;;6.60;5.78;;;10.10;99.90;;;10.20;74.64;99545.13;5092883;28;20036;-67
2021/01/20 10:22:51;;;;;;;7.47;6.68;;;10.10;99.90;;;10.23;74.70;99511.56;5092717;28;20142;-66
2021/01/20 10:25:18;;;;;;;9.20;6.15;;;10.10;99.90;;;10.25;74.62;99540.59;5092811;28;20074;-66
2021/01/20 10:27:46;;;;;;;9.65;6.43;;;10.10;99.90;;;9.73;74.82;99457.31;5074425;28;20040;-66
2021/01/20 10:30:15;;;;;;;6.03;5.43;;;10.20;99.90;;;10.33;75.17;99528.06;5092481;28;20048;-66
2021/01/20 10:32:45;;;;;;;6.45;5.85;;;10.20;99.90;;;10.22;74.73;99535.41;5074303;28;20441;-66
2021/01/20 10:35:18;;;;;;;8.75;6.53;;;10.10;99.90;;;10.21;74.56;99523.94;5092673;28;20040;-66
2021/01/20 10:37:46;;;;;;;7.47;6.22;;;10.10;99.90;;;10.19;74.55;99519.59;5074390;28;20055;-66
2021/01/20 10:40:15;;;;;;;8.45;6.50;;;10.00;99.90;;;10.15;74.70;99508.25;5092309;28;20089;-66